Time;durP1;ratioP1;P1;durP2;ratioP2;P2;SDS_P1;SDS_P2;PMS_P1;PMS_P2;Temp;Humidity;BMP_temperature;BMP_pressure;BME280_temperature;BME280_humidity;BME280_pressure;Samples;Min_cycle;Max_cycle;Signal;HPM_P1;HPM_P2
2023/07/26 00:01:51;;;;;;;5.83;4.67;;;;;;;;;;5070698;28;20043;-68
2023/07/26 00:04:16;;;;;;;4.78;3.65;;;;;;;;;;5071976;28;20487;-69
2023/07/26 00:06:42;;;;;;;7.85;4.18;;;;;;;;;;5070846;28;20040;-68
2023/07/26 00:09:10;;;;;;;9.43;4.40;;;;;;;;;;5071395;28;20022;-67
2023/07/26 00:11:36;;;;;;;4.85;4.35;;;;;;;;;;5070674;28;21021;-68
2023/07/26 00:14:01;;;;;;;14.07;4.88;;;;;;;;;;5072158;28;20027;-67
2023/07/26 00:16:26;;;;;;;9.73;5.13;;;;;;;;;;5070353;28;20036;-67
2023/07/26 00:18:52;;;;;;;8.33;4.60;;;;;;;;;;5072059;28;20108;-67
2023/07/26 00:21:17;;;;;;;4.18;3.75;;;;;;;;;;5070338;28;20082;-67
2023/07/26 00:23:42;;;;;;;4.90;4.38;;;;;;;;;;5071647;28;20029;-67
2023/07/26 00:26:07;;;;;;;4.65;4.22;;;;;;;;;;5070265;28;20028;-67
2023/07/26 00:28:32;;;;;;;7.63;4.72;;;;;;;;;;5071650;28;20048;-67
2023/07/26 00:30:58;;;;;;;4.93;4.47;;;;;;;;;;5068535;28;20078;-66
2023/07/26 00:33:23;;;;;;;5.07;4.28;;;;;;;;;;5071765;28;20023;-67
2023/07/26 00:35:48;;;;;;;5.13;3.83;;;;;;;;;;5071397;28;20044;-67
2023/07/26 00:38:13;;;;;;;7.63;5.15;;;;;;;;;;5069369;28;20112;-68
2023/07/26 00:40:39;;;;;;;5.97;5.47;;;;;;;;;;5071694;28;20048;-68
2023/07/26 00:43:05;;;;;;;5.85;4.22;;;;;;;;;;5069826;28;20033;-67
2023/07/26 00:45:32;;;;;;;7.03;4.65;;;;;;;;;;5071420;28;20096;-68
2023/07/26 00:47:57;;;;;;;5.97;4.75;;;;;;;;;;5068788;28;20139;-68
2023/07/26 00:50:23;;;;;;;5.45;3.92;;;;;;;;;;5071195;28;20104;-67
2023/07/26 00:52:48;;;;;;;5.43;4.93;;;;;;;;;;5069297;28;20487;-67
2023/07/26 00:55:13;;;;;;;8.10;4.63;;;;;;;;;;5071218;28;20066;-67
2023/07/26 00:57:39;;;;;;;5.70;4.80;;;;;;;;;;5069677;28;20041;-67
2023/07/26 01:00:05;;;;;;;9.40;5.53;;;;;;;;;;5070693;28;20643;-67
2023/07/26 01:02:30;;;;;;;6.57;5.57;;;;;;;;;;5069632;28;20033;-67
2023/07/26 01:04:55;;;;;;;9.00;5.03;;;;;;;;;;5071172;28;20391;-67
2023/07/26 01:07:33;;;;;;;5.70;5.20;;;;;;;;;;5069180;28;20131;-68
2023/07/26 01:10:07;;;;;;;4.68;4.28;;;;;;;;;;5070937;28;20430;-67
2023/07/26 01:12:35;;;;;;;11.57;5.32;;;;;;;;;;5068421;28;20491;-67
2023/07/26 01:15:06;;;;;;;8.82;5.35;;;;;;;;;;5070611;28;20021;-67
2023/07/26 01:17:31;;;;;;;5.93;5.40;;;;;;;;;;5069732;28;20035;-67
2023/07/26 01:19:56;;;;;;;7.43;5.10;;;;;;;;;;5070957;28;20100;-67
2023/07/26 01:22:21;;;;;;;5.30;4.40;;;;;;;;;;5068875;28;20070;-67
2023/07/26 01:24:47;;;;;;;4.50;3.80;;;;;;;;;;5070962;28;20032;-67
2023/07/26 01:27:12;;;;;;;6.10;5.40;;;;;;;;;;5069478;28;20152;-67
2023/07/26 01:29:37;;;;;;;9.15;6.07;;;;;;;;;;5070440;28;20425;-67
2023/07/26 01:32:03;;;;;;;6.63;5.83;;;;;;;;;;5069102;28;20566;-67
2023/07/26 01:34:29;;;;;;;4.97;4.40;;;;;;;;;;5053008;28;20569;-67
2023/07/26 01:36:55;;;;;;;5.00;4.50;;;;;;;;;;5057736;28;20498;-67
2023/07/26 01:39:20;;;;;;;6.43;5.07;;;;;;;;;;5070504;28;20012;-67
2023/07/26 01:41:45;;;;;;;5.13;4.65;;;;;;;;;;5068912;28;20037;-67
2023/07/26 01:44:11;;;;;;;9.35;5.07;;;;;;;;;;5070201;28;20021;-67
2023/07/26 01:46:36;;;;;;;5.07;4.57;;;;;;;;;;5069668;28;20119;-69
2023/07/26 01:49:02;;;;;;;7.68;5.10;;;;;;;;;;5070114;28;20116;-68
2023/07/26 01:51:27;;;;;;;5.83;5.23;;;;;;;;;;5068721;28;20062;-68
2023/07/26 01:53:52;;;;;;;6.87;5.80;;;;;;;;;;5070672;28;20455;-68
2023/07/26 01:56:17;;;;;;;6.20;4.53;;;;;;;;;;5068946;28;20025;-68
2023/07/26 01:58:42;;;;;;;5.87;5.37;;;;;;;;;;5068682;28;20012;-69
2023/07/26 02:01:07;;;;;;;8.20;5.47;;;;;;;;;;5068750;28;20910;-68
2023/07/26 02:03:33;;;;;;;6.10;5.53;;;;;;;;;;5070622;28;20019;-68
2023/07/26 02:05:58;;;;;;;6.00;5.20;;;;;;;;;;5068959;28;20426;-68
2023/07/26 02:08:23;;;;;;;6.70;5.40;;;;;;;;;;5070323;28;20048;-69
2023/07/26 02:10:48;;;;;;;6.30;5.68;;;;;;;;;;5070340;28;20020;-68
2023/07/26 02:13:13;;;;;;;6.77;4.93;;;;;;;;;;5068504;28;20068;-68
2023/07/26 02:15:39;;;;;;;5.93;5.33;;;;;;;;;;5070458;28;20446;-68
2023/07/26 02:18:05;;;;;;;10.75;5.57;;;;;;;;;;5068729;28;20071;-68
2023/07/26 02:20:30;;;;;;;6.25;5.55;;;;;;;;;;5068498;28;20013;-68
2023/07/26 02:22:56;;;;;;;7.80;6.20;;;;;;;;;;5069000;28;20048;-67
2023/07/26 02:25:21;;;;;;;8.20;6.03;;;;;;;;;;5070070;28;20884;-67
2023/07/26 02:27:46;;;;;;;7.50;6.70;;;;;;;;;;5068657;28;20041;-67
2023/07/26 02:30:11;;;;;;;9.90;6.67;;;;;;;;;;5069954;28;20456;-68
2023/07/26 02:32:36;;;;;;;10.27;7.13;;;;;;;;;;5068396;28;20064;-68
2023/07/26 02:35:02;;;;;;;7.55;5.85;;;;;;;;;;5069524;28;20521;-67
2023/07/26 02:37:27;;;;;;;7.18;6.57;;;;;;;;;;5068750;28;20048;-68
2023/07/26 02:39:52;;;;;;;7.33;6.67;;;;;;;;;;5069971;28;20015;-68
2023/07/26 02:42:18;;;;;;;6.73;6.20;;;;;;;;;;5068459;28;20040;-69
2023/07/26 02:44:45;;;;;;;10.00;7.33;;;;;;;;;;5070168;28;20028;-69
2023/07/26 02:47:10;;;;;;;10.60;8.48;;;;;;;;;;5068500;28;20473;-68
2023/07/26 02:49:35;;;;;;;12.40;7.83;;;;;;;;;;5070006;28;20025;-68
2023/07/26 02:52:00;;;;;;;8.97;8.07;;;;;;;;;;5068002;28;20040;-68
2023/07/26 02:54:25;;;;;;;8.13;7.32;;;;;;;;;;5071895;28;20104;-68
2023/07/26 02:56:50;;;;;;;11.53;8.57;;;;;;;;;;5072329;28;20040;-69
2023/07/26 02:59:17;;;;;;;16.05;10.90;;;;;;;;;;5073189;28;20435;-69
2023/07/26 03:01:42;;;;;;;11.95;9.88;;;;;;;;;;5071776;28;20457;-69
2023/07/26 03:04:07;;;;;;;11.80;9.43;;;;;;;;;;5073466;28;20028;-68
2023/07/26 03:06:32;;;;;;;12.00;10.70;;;;;;;;;;5071815;28;20044;-67
2023/07/26 03:08:58;;;;;;;18.27;10.57;;;;;;;;;;5073498;28;20513;-67
2023/07/26 03:11:23;;;;;;;14.75;11.15;;;;;;;;;;5071608;28;20559;-67
2023/07/26 03:13:48;;;;;;;18.47;11.60;;;;;;;;;;5073032;28;20032;-67
2023/07/26 03:16:17;;;;;;;15.00;10.83;;;;;;;;;;5071134;28;20529;-66
2023/07/26 03:18:42;;;;;;;13.13;10.48;;;;;;;;;;5073223;28;20443;-67
2023/07/26 03:21:07;;;;;;;11.32;10.07;;;;;;;;;;5071422;28;20421;-67
2023/07/26 03:23:34;;;;;;;15.60;11.40;;;;;;;;;;5073266;28;20448;-68
2023/07/26 03:25:59;;;;;;;14.38;11.55;;;;;;;;;;5071513;28;20020;-68
2023/07/26 03:28:24;;;;;;;14.10;11.67;;;;;;;;;;5072549;28;20127;-67
2023/07/26 03:30:49;;;;;;;17.77;11.32;;;;;;;;;;5072981;28;20039;-68
2023/07/26 03:33:14;;;;;;;13.73;10.97;;;;;;;;;;5071459;28;20121;-68
2023/07/26 03:35:39;;;;;;;13.23;11.10;;;;;;;;;;5072463;28;20096;-67
2023/07/26 03:38:05;;;;;;;13.40;12.00;;;;;;;;;;5070909;28;20167;-67
2023/07/26 03:40:30;;;;;;;14.23;11.57;;;;;;;;;;5072858;28;20838;-67
2023/07/26 03:42:55;;;;;;;17.80;12.07;;;;;;;;;;5071066;28;20032;-68
2023/07/26 03:45:20;;;;;;;19.90;12.48;;;;;;;;;;5072564;28;20875;-67
2023/07/26 03:47:45;;;;;;;12.27;10.93;;;;;;;;;;5071390;28;20044;-68
2023/07/26 03:50:11;;;;;;;11.27;10.18;;;;;;;;;;5071839;28;20479;-68
2023/07/26 03:52:36;;;;;;;12.13;10.93;;;;;;;;;;5071195;28;20037;-68
2023/07/26 03:55:01;;;;;;;20.97;11.73;;;;;;;;;;5072566;28;21019;-68
2023/07/26 03:57:26;;;;;;;14.00;12.60;;;;;;;;;;5070726;28;20043;-68
2023/07/26 03:59:51;;;;;;;12.37;11.17;;;;;;;;;;5072444;28;20435;-68
2023/07/26 04:02:16;;;;;;;16.95;12.57;;;;;;;;;;5070806;28;20553;-67
2023/07/26 04:04:41;;;;;;;13.57;12.38;;;;;;;;;;5071610;28;20099;-67
2023/07/26 04:07:07;;;;;;;12.48;11.00;;;;;;;;;;5070756;28;20036;-67
2023/07/26 04:09:32;;;;;;;16.33;13.30;;;;;;;;;;5072189;28;20032;-68
2023/07/26 04:11:57;;;;;;;17.50;13.45;;;;;;;;;;5069633;28;20079;-67
2023/07/26 04:14:22;;;;;;;13.38;12.02;;;;;;;;;;5070931;28;20081;-68
2023/07/26 04:16:48;;;;;;;14.80;11.45;;;;;;;;;;5070461;28;20059;-67
2023/07/26 04:19:13;;;;;;;13.30;11.90;;;;;;;;;;5071431;28;20090;-69
2023/07/26 04:21:38;;;;;;;13.73;12.30;;;;;;;;;;5070799;28;20115;-71
2023/07/26 04:24:04;;;;;;;13.10;10.10;;;;;;;;;;5071915;28;20471;-71
2023/07/26 04:26:29;;;;;;;16.23;12.88;;;;;;;;;;5069130;28;20455;-71
2023/07/26 04:28:54;;;;;;;12.85;11.55;;;;;;;;;;5071927;28;20082;-71
2023/07/26 04:31:19;;;;;;;14.27;12.85;;;;;;;;;;5069769;28;20036;-73
2023/07/26 04:33:44;;;;;;;16.10;12.30;;;;;;;;;;5071495;28;20471;-71
2023/07/26 04:36:09;;;;;;;13.05;11.30;;;;;;;;;;5068683;28;20052;-71
2023/07/26 04:38:35;;;;;;;14.45;12.02;;;;;;;;;;5071493;28;20022;-70
2023/07/26 04:41:00;;;;;;;17.90;14.07;;;;;;;;;;5069526;28;20522;-70
2023/07/26 04:43:25;;;;;;;16.50;11.97;;;;;;;;;;5070897;28;20025;-71
2023/07/26 04:45:51;;;;;;;16.10;13.73;;;;;;;;;;5070888;28;20495;-70
2023/07/26 04:48:16;;;;;;;13.98;12.13;;;;;;;;;;5067292;28;20041;-70
2023/07/26 04:50:42;;;;;;;12.48;10.80;;;;;;;;;;5071638;28;20103;-70
2023/07/26 04:53:07;;;;;;;15.95;14.20;;;;;;;;;;5069528;28;20406;-70
2023/07/26 04:55:33;;;;;;;15.33;13.07;;;;;;;;;;5071200;28;20544;-70
2023/07/26 04:57:58;;;;;;;14.97;13.40;;;;;;;;;;5068586;28;20451;-70
2023/07/26 05:00:23;;;;;;;16.33;12.53;;;;;;;;;;5069889;28;20477;-70
2023/07/26 05:02:48;;;;;;;15.97;14.47;;;;;;;;;;5069782;28;20446;-71
2023/07/26 05:05:13;;;;;;;16.65;12.65;;;;;;;;;;5070723;28;20411;-70
2023/07/26 05:07:38;;;;;;;13.40;11.63;;;;;;;;;;5069915;28;20036;-70
2023/07/26 05:10:04;;;;;;;14.70;12.35;;;;;;;;;;5070717;28;20466;-71
2023/07/26 05:12:29;;;;;;;16.70;12.48;;;;;;;;;;5068904;28;20036;-70
2023/07/26 05:14:54;;;;;;;13.70;12.37;;;;;;;;;;5071445;28;20017;-70
2023/07/26 05:17:19;;;;;;;13.33;11.40;;;;;;;;;;5068744;28;20029;-71
2023/07/26 05:19:45;;;;;;;11.67;10.50;;;;;;;;;;5070720;28;20012;-71
2023/07/26 05:22:10;;;;;;;17.27;11.43;;;;;;;;;;5069017;28;20127;-66
2023/07/26 05:24:36;;;;;;;13.60;12.20;;;;;;;;;;5071253;28;20027;-66
2023/07/26 05:27:01;;;;;;;18.30;13.03;;;;;;;;;;5069169;28;20499;-66
2023/07/26 05:29:26;;;;;;;14.97;13.43;;;;;;;;;;5070615;28;20048;-66
2023/07/26 05:31:51;;;;;;;16.30;12.52;;;;;;;;;;5069068;28;20477;-67
2023/07/26 05:34:16;;;;;;;14.40;12.83;;;;;;;;;;5069522;28;20016;-72
2023/07/26 05:36:42;;;;;;;12.53;11.03;;;;;;;;;;5069103;28;20499;-69
2023/07/26 05:39:07;;;;;;;16.50;12.63;;;;;;;;;;5070817;28;20013;-69
2023/07/26 05:41:32;;;;;;;14.40;11.55;;;;;;;;;;5070467;28;20584;-68
2023/07/26 05:43:58;;;;;;;13.07;11.17;;;;;;;;;;5048653;28;20052;-68
2023/07/26 05:46:23;;;;;;;18.73;11.68;;;;;;;;;;5048509;28;20025;-68
2023/07/26 05:48:48;;;;;;;15.80;11.20;;;;;;;;;;5067237;28;20111;-68
2023/07/26 05:51:14;;;;;;;15.20;10.63;;;;;;;;;;5070365;28;20028;-69
2023/07/26 05:53:39;;;;;;;14.90;11.90;;;;;;;;;;5069285;28;20033;-68
2023/07/26 05:56:04;;;;;;;12.53;11.33;;;;;;;;;;5070047;28;20016;-68
2023/07/26 05:58:29;;;;;;;14.45;12.10;;;;;;;;;;5069272;28;20443;-68
2023/07/26 06:00:54;;;;;;;16.03;11.53;;;;;;;;;;5070506;28;20013;-68
2023/07/26 06:03:20;;;;;;;11.70;10.50;;;;;;;;;;5068774;28;20039;-68
2023/07/26 06:05:45;;;;;;;11.50;9.73;;;;;;;;;;5070731;28;20414;-69
2023/07/26 06:08:10;;;;;;;10.50;9.52;;;;;;;;;;5068877;28;20033;-69
2023/07/26 06:10:35;;;;;;;12.95;10.63;;;;;;;;;;5069945;28;20095;-68
2023/07/26 06:13:01;;;;;;;10.60;8.75;;;;;;;;;;5068703;28;20091;-68
2023/07/26 06:15:26;;;;;;;9.57;8.57;;;;;;;;;;5070247;28;20056;-68
2023/07/26 06:17:51;;;;;;;11.07;8.57;;;;;;;;;;5068776;28;20442;-69
2023/07/26 06:20:16;;;;;;;9.00;8.20;;;;;;;;;;5070439;28;20473;-69
2023/07/26 06:22:41;;;;;;;11.23;8.90;;;;;;;;;;5069007;28;20537;-68
2023/07/26 06:25:07;;;;;;;10.80;9.63;;;;;;;;;;5069749;28;20137;-68
2023/07/26 06:27:32;;;;;;;9.20;8.40;;;;;;;;;;5069892;28;20032;-68
2023/07/26 06:29:57;;;;;;;10.80;9.40;;;;;;;;;;5074108;28;20425;-69
2023/07/26 06:32:22;;;;;;;12.68;6.93;;;;;;;;;;5072044;28;20463;-68
2023/07/26 06:34:48;;;;;;;19.10;8.50;;;;;;;;;;5074194;28;20020;-68
2023/07/26 06:37:13;;;;;;;11.55;8.35;;;;;;;;;;5072408;28;20446;-68
2023/07/26 06:39:38;;;;;;;7.63;6.93;;;;;;;;;;5067124;28;20531;-69
2023/07/26 06:42:03;;;;;;;8.33;7.47;;;;;;;;;;5070393;28;20087;-69
2023/07/26 06:44:28;;;;;;;10.52;7.53;;;;;;;;;;5070275;28;20476;-69
2023/07/26 06:46:54;;;;;;;6.77;6.07;;;;;;;;;;5051905;28;20028;-69
2023/07/26 06:49:19;;;;;;;5.45;4.93;;;;;;;;;;5053594;28;20490;-69
2023/07/26 06:51:44;;;;;;;9.70;6.32;;;;;;;;;;5052209;28;20017;-68
2023/07/26 06:54:09;;;;;;;5.93;5.03;;;;;;;;;;5052984;28;20024;-68
2023/07/26 06:56:34;;;;;;;7.82;4.25;;;;;;;;;;5056423;28;20005;-69
2023/07/26 06:59:01;;;;;;;6.25;5.75;;;;;;;;;;5072192;28;20029;-68
2023/07/26 07:01:26;;;;;;;10.35;5.53;;;;;;;;;;5072859;28;20017;-68
2023/07/26 07:03:51;;;;;;;8.17;5.30;;;;;;;;;;5072011;28;20025;-69
2023/07/26 07:06:16;;;;;;;8.57;6.83;;;;;;;;;;5073085;28;20829;-69
2023/07/26 07:08:41;;;;;;;7.30;5.43;;;;;;;;;;5070702;28;20094;-69
2023/07/26 07:11:07;;;;;;;8.87;5.73;;;;;;;;;;5071414;28;20017;-69
2023/07/26 07:13:36;;;;;;;6.63;5.87;;;;;;;;;;5071841;28;20553;-69
2023/07/26 07:16:02;;;;;;;14.73;6.15;;;;;;;;;;5073519;28;20024;-69
2023/07/26 07:18:27;;;;;;;5.78;5.18;;;;;;;;;;5071509;28;20036;-69
2023/07/26 07:20:55;;;;;;;6.30;5.40;;;;;;;;;;5073290;28;20020;-69
2023/07/26 07:23:21;;;;;;;;;;;;;;;;;;5072201;28;20037;-69
2023/07/26 07:25:46;;;;;;;5.70;4.57;;;;;;;;;;5072666;28;19905;-69
2023/07/26 07:28:11;;;;;;;7.10;4.80;;;;;;;;;;5071570;28;20492;-68
2023/07/26 07:30:36;;;;;;;6.47;4.17;;;;;;;;;;5073275;28;20124;-69
2023/07/26 07:33:02;;;;;;;5.33;3.70;;;;;;;;;;5070942;28;20491;-68
2023/07/26 07:35:27;;;;;;;6.80;3.73;;;;;;;;;;5072843;28;20113;-68
2023/07/26 07:37:52;;;;;;;6.80;4.57;;;;;;;;;;5071403;28;21150;-68
2023/07/26 07:40:17;;;;;;;3.97;3.67;;;;;;;;;;5071536;28;20883;-68
2023/07/26 07:42:42;;;;;;;6.80;4.27;;;;;;;;;;5071472;28;20455;-68
2023/07/26 07:45:08;;;;;;;7.53;4.60;;;;;;;;;;5069154;28;20462;-68
2023/07/26 07:47:33;;;;;;;6.07;4.57;;;;;;;;;;5069810;28;21074;-68
2023/07/26 07:49:58;;;;;;;7.60;6.25;;;;;;;;;;5072493;28;20460;-67
2023/07/26 07:52:23;;;;;;;7.83;4.83;;;;;;;;;;5070647;28;20033;-67
2023/07/26 07:54:49;;;;;;;6.70;4.07;;;;;;;;;;5069444;28;20534;-67
2023/07/26 07:57:14;;;;;;;5.63;4.63;;;;;;;;;;5070972;28;20368;-67
2023/07/26 07:59:39;;;;;;;5.68;5.18;;;;;;;;;;5063879;28;20511;-67
2023/07/26 08:02:05;;;;;;;6.73;4.37;;;;;;;;;;5050131;28;20052;-67
2023/07/26 08:04:30;;;;;;;6.25;4.55;;;;;;;;;;5052392;28;20019;-67
2023/07/26 08:06:55;;;;;;;5.30;4.80;;;;;;;;;;5048517;28;20037;-66
2023/07/26 08:09:20;;;;;;;6.40;4.57;;;;;;;;;;5051620;28;20480;-67
2023/07/26 08:11:46;;;;;;;7.13;5.90;;;;;;;;;;5050807;28;20120;-64
2023/07/26 08:14:11;;;;;;;5.20;4.17;;;;;;;;;;5051968;28;20411;-70
2023/07/26 08:16:37;;;;;;;5.50;4.05;;;;;;;;;;5050398;28;20484;-68
2023/07/26 08:19:03;;;;;;;5.18;4.40;;;;;;;;;;5052206;28;20025;-68
2023/07/26 08:21:28;;;;;;;8.27;5.30;;;;;;;;;;5050502;28;20483;-70
2023/07/26 08:23:53;;;;;;;9.50;5.60;;;;;;;;;;5051823;28;20059;-67
2023/07/26 08:26:19;;;;;;;5.27;3.57;;;;;;;;;;5050347;28;21016;-67
2023/07/26 08:28:44;;;;;;;6.32;3.88;;;;;;;;;;5052305;28;20419;-68
2023/07/26 08:31:09;;;;;;;5.27;4.13;;;;;;;;;;5049861;28;20040;-67
2023/07/26 08:33:34;;;;;;;4.63;4.00;;;;;;;;;;5052156;28;20029;-67
2023/07/26 08:35:59;;;;;;;4.30;3.87;;;;;;;;;;5050082;28;20538;-67
2023/07/26 08:38:24;;;;;;;4.10;3.70;;;;;;;;;;5051248;28;20020;-67
2023/07/26 08:40:50;;;;;;;4.77;4.37;;;;;;;;;;5051845;28;20040;-67
2023/07/26 08:43:18;;;;;;;4.72;4.13;;;;;;;;;;5049836;28;20033;-67
2023/07/26 08:45:44;;;;;;;5.93;3.33;;;;;;;;;;5051232;28;20047;-67
2023/07/26 08:48:09;;;;;;;3.53;3.22;;;;;;;;;;5050117;28;20456;-67
2023/07/26 08:50:35;;;;;;;4.35;3.03;;;;;;;;;;5050865;28;20017;-67
2023/07/26 08:53:02;;;;;;;3.55;3.03;;;;;;;;;;5049237;28;20037;-67
2023/07/26 08:55:28;;;;;;;5.55;3.92;;;;;;;;;;5050139;28;20495;-67
2023/07/26 08:57:53;;;;;;;5.88;3.10;;;;;;;;;;5049769;28;20043;-67
2023/07/26 09:00:18;;;;;;;5.60;3.93;;;;;;;;;;5050902;28;20024;-67
2023/07/26 09:02:45;;;;;;;4.18;3.58;;;;;;;;;;5050001;28;20060;-67
2023/07/26 09:05:10;;;;;;;5.10;3.47;;;;;;;;;;5051247;28;20059;-67
2023/07/26 09:07:36;;;;;;;7.13;5.05;;;;;;;;;;5047888;28;20075;-67
2023/07/26 09:10:01;;;;;;;5.78;5.25;;;;;;;;;;5069646;28;20646;-67
2023/07/26 09:12:27;;;;;;;9.73;7.40;;;;;;;;;;5069433;28;20029;-67
2023/07/26 09:14:56;;;;;;;8.93;7.93;;;;;;;;;;5070149;28;20141;-67
2023/07/26 09:17:21;;;;;;;9.73;7.35;;;;;;;;;;5068645;28;20090;-67
2023/07/26 09:19:49;;;;;;;11.88;8.50;;;;;;;;;;5070046;28;20028;-67
2023/07/26 09:22:14;;;;;;;13.50;9.53;;;;;;;;;;5068494;28;20502;-67
2023/07/26 09:24:40;;;;;;;16.57;12.93;;;;;;;;;;5070485;28;20103;-67
2023/07/26 09:27:07;;;;;;;14.77;9.52;;;;;;;;;;5068502;28;21001;-68
2023/07/26 09:29:33;;;;;;;9.52;8.63;;;;;;;;;;5070347;28;20020;-67
2023/07/26 09:31:58;;;;;;;8.52;7.72;;;;;;;;;;5069536;28;20573;-67
2023/07/26 09:34:24;;;;;;;13.70;7.03;;;;;;;;;;5070582;28;20161;-67
2023/07/26 09:36:49;;;;;;;8.60;7.05;;;;;;;;;;5068885;28;20047;-67
2023/07/26 09:39:16;;;;;;;11.15;8.60;;;;;;;;;;5070473;28;20016;-67
2023/07/26 09:41:41;;;;;;;8.93;8.02;;;;;;;;;;5069289;28;20033;-67
2023/07/26 09:44:07;;;;;;;8.75;7.90;;;;;;;;;;5070439;28;20090;-67
2023/07/26 09:46:45;;;;;;;6.40;5.50;;;;;;;;;;5069322;28;20412;-67
2023/07/26 09:49:11;;;;;;;11.13;6.75;;;;;;;;;;5070782;28;20021;-68
2023/07/26 09:51:38;;;;;;;6.13;5.53;;;;;;;;;;5068607;28;20028;-68
2023/07/26 09:54:04;;;;;;;10.00;6.22;;;;;;;;;;5070334;28;20138;-68
2023/07/26 09:56:35;;;;;;;4.82;4.00;;;;;;;;;;5069222;28;20070;-68
2023/07/26 09:59:01;;;;;;;4.38;3.85;;;;;;;;;;5070617;28;20017;-68
2023/07/26 10:01:27;;;;;;;7.82;4.93;;;;;;;;;;5062700;28;20573;-68
2023/07/26 10:03:54;;;;;;;4.47;3.95;;;;;;;;;;5053118;28;20060;-68
2023/07/26 10:06:20;;;;;;;3.95;3.03;;;;;;;;;;5052603;28;20609;-68
2023/07/26 10:08:46;;;;;;;3.65;3.22;;;;;;;;;;5051857;28;20055;-68
2023/07/26 10:11:13;;;;;;;6.72;5.10;;;;;;;;;;5053852;28;20033;-68
2023/07/26 10:13:39;;;;;;;2.85;2.58;;;;;;;;;;5055831;28;20475;-68
2023/07/26 10:16:05;;;;;;;3.15;2.95;;;;;;;;;;5054035;28;20071;-68
2023/07/26 10:18:32;;;;;;;4.93;3.38;;;;;;;;;;5073176;28;20012;-68
2023/07/26 10:21:00;;;;;;;5.28;3.67;;;;;;;;;;5073010;28;20027;-68
2023/07/26 10:23:25;;;;;;;4.85;3.03;;;;;;;;;;5072865;28;20142;-68
2023/07/26 10:25:51;;;;;;;3.60;3.25;;;;;;;;;;5073582;28;20025;-68
2023/07/26 10:28:17;;;;;;;4.15;3.33;;;;;;;;;;5070617;28;20045;-68
2023/07/26 10:30:42;;;;;;;2.65;2.28;;;;;;;;;;5071376;28;20028;-68
2023/07/26 10:33:10;;;;;;;5.32;3.28;;;;;;;;;;5054107;28;20037;-68
2023/07/26 10:35:35;;;;;;;3.85;2.25;;;;;;;;;;5053467;28;20037;-68
2023/07/26 10:38:03;;;;;;;3.70;2.43;;;;;;;;;;5069633;28;20032;-67
2023/07/26 10:40:35;;;;;;;3.35;3.05;;;;;;;;;;5074023;28;20415;-68
2023/07/26 10:43:21;;;;;;;2.63;2.05;;;;;;;;;;5072597;28;20066;-69
2023/07/26 10:45:52;;;;;;;3.42;2.35;;;;;;;;;;5069460;28;20475;-68
2023/07/26 10:48:30;;;;;;;3.60;2.50;;;;;;;;;;5072410;28;20041;-69
2023/07/26 10:50:58;;;;;;;2.90;2.60;;;;;;;;;;5071947;28;20099;-67
2023/07/26 10:53:27;;;;;;;3.15;2.85;;;;;;;;;;5073771;28;20028;-69
2023/07/26 10:55:55;;;;;;;5.60;2.65;;;;;;;;;;5073947;28;20004;-68
2023/07/26 10:58:20;;;;;;;4.28;2.47;;;;;;;;;;5071931;28;20107;-68
2023/07/26 11:00:45;;;;;;;4.10;3.63;;;;;;;;;;5073578;28;20097;-68
2023/07/26 11:03:11;;;;;;;3.43;2.57;;;;;;;;;;5071854;28;20454;-68
2023/07/26 11:05:38;;;;;;;3.83;2.47;;;;;;;;;;5072012;28;20021;-68
2023/07/26 11:08:07;;;;;;;3.92;2.13;;;;;;;;;;5070671;28;20052;-68
2023/07/26 11:10:32;;;;;;;3.95;2.72;;;;;;;;;;5073226;28;20029;-68
2023/07/26 11:13:18;;;;;;;2.90;2.47;;;;;;;;;;5071628;28;20040;-68
2023/07/26 11:15:45;;;;;;;5.03;2.90;;;;;;;;;;5072049;28;20465;-68
2023/07/26 11:18:11;;;;;;;3.45;1.90;;;;;;;;;;5071756;28;20484;-68
2023/07/26 11:20:37;;;;;;;2.42;2.22;;;;;;;;;;5072765;28;20033;-68
2023/07/26 11:23:13;;;;;;;3.25;2.50;;;;;;;;;;5071610;28;20151;-68
2023/07/26 11:25:38;;;;;;;3.17;2.58;;;;;;;;;;5073235;28;20387;-68
2023/07/26 11:28:03;;;;;;;3.25;2.28;;;;;;;;;;5071300;28;20032;-68
2023/07/26 11:30:29;;;;;;;4.53;2.53;;;;;;;;;;5073070;28;20032;-68
2023/07/26 11:32:56;;;;;;;4.22;3.35;;;;;;;;;;5068404;28;20114;-68
2023/07/26 11:35:23;;;;;;;4.35;2.67;;;;;;;;;;5071079;28;20485;-68
2023/07/26 11:37:55;;;;;;;4.65;3.03;;;;;;;;;;5071646;28;20029;-69
2023/07/26 11:40:20;;;;;;;5.18;2.67;;;;;;;;;;5058529;28;20499;-69
2023/07/26 11:42:46;;;;;;;6.25;3.55;;;;;;;;;;5051004;28;20029;-67
2023/07/26 11:45:12;;;;;;;5.57;2.28;;;;;;;;;;5052629;28;20021;-68
2023/07/26 11:47:38;;;;;;;4.00;2.28;;;;;;;;;;5051343;28;20040;-67
2023/07/26 11:50:03;;;;;;;3.47;2.37;;;;;;;;;;5052049;28;20383;-66
2023/07/26 11:52:28;;;;;;;11.57;4.22;;;;;;;;;;5051146;28;20071;-67
2023/07/26 11:55:04;;;;;;;9.35;3.35;;;;;;;;;;5052917;28;20055;-67
2023/07/26 11:57:29;;;;;;;5.20;2.55;;;;;;;;;;5049610;28;20033;-68
2023/07/26 11:59:55;;;;;;;5.95;2.45;;;;;;;;;;5052618;28;20057;-68
2023/07/26 12:02:21;;;;;;;4.15;2.83;;;;;;;;;;5050808;28;20037;-68
2023/07/26 12:05:05;;;;;;;5.28;3.55;;;;;;;;;;5052155;28;20029;-68
2023/07/26 12:07:30;;;;;;;3.42;3.00;;;;;;;;;;5051143;28;20116;-68
2023/07/26 12:09:55;;;;;;;2.87;2.63;;;;;;;;;;5052196;28;20117;-68
2023/07/26 12:12:20;;;;;;;6.90;3.00;;;;;;;;;;5048215;28;20066;-68
2023/07/26 12:14:46;;;;;;;2.77;2.37;;;;;;;;;;5051184;28;20009;-68
2023/07/26 12:17:14;;;;;;;5.00;3.27;;;;;;;;;;5050165;28;20112;-68
2023/07/26 12:19:43;;;;;;;2.65;2.45;;;;;;;;;;5051848;28;20099;-68
2023/07/26 12:22:09;;;;;;;3.15;2.88;;;;;;;;;;5050529;28;20090;-69
2023/07/26 12:24:49;;;;;;;2.95;2.28;;;;;;;;;;5052152;28;20025;-68
2023/07/26 12:27:14;;;;;;;3.80;3.45;;;;;;;;;;5049844;28;20094;-68
2023/07/26 12:29:39;;;;;;;2.83;2.50;;;;;;;;;;5051965;28;20017;-68
2023/07/26 12:32:05;;;;;;;3.28;2.55;;;;;;;;;;5050134;28;20435;-68
2023/07/26 12:34:31;;;;;;;2.83;2.63;;;;;;;;;;5050288;28;20021;-68
2023/07/26 12:36:59;;;;;;;3.28;2.50;;;;;;;;;;5050471;28;20040;-68
2023/07/26 12:39:24;;;;;;;2.87;2.67;;;;;;;;;;5051746;28;20040;-68
2023/07/26 12:41:49;;;;;;;3.77;3.33;;;;;;;;;;5049851;28;20036;-68
2023/07/26 12:44:15;;;;;;;7.05;3.78;;;;;;;;;;5051607;28;20053;-68
2023/07/26 12:46:41;;;;;;;7.03;3.65;;;;;;;;;;5050319;28;20041;-68
2023/07/26 12:49:08;;;;;;;3.78;3.28;;;;;;;;;;5051252;28;20531;-68
2023/07/26 12:51:33;;;;;;;4.53;3.20;;;;;;;;;;5049715;28;20063;-68
2023/07/26 12:53:58;;;;;;;7.65;3.78;;;;;;;;;;5051333;28;20049;-68
2023/07/26 12:56:24;;;;;;;4.40;3.70;;;;;;;;;;5049765;28;20080;-68
2023/07/26 12:58:49;;;;;;;5.03;4.00;;;;;;;;;;5050960;28;20021;-68
2023/07/26 13:01:16;;;;;;;7.20;4.47;;;;;;;;;;5049654;28;20025;-68
2023/07/26 13:03:42;;;;;;;5.20;3.65;;;;;;;;;;5051177;28;20078;-68
2023/07/26 13:06:07;;;;;;;22.73;3.55;;;;;;;;;;5049134;28;20028;-67
2023/07/26 13:08:32;;;;;;;8.32;4.55;;;;;;;;;;5051295;28;20096;-67
2023/07/26 13:10:58;;;;;;;4.80;3.00;;;;;;;;;;5049656;28;20388;-67
2023/07/26 13:13:23;;;;;;;8.52;5.45;;;;;;;;;;5050631;28;20436;-67
2023/07/26 13:15:48;;;;;;;3.60;3.27;;;;;;;;;;5051328;28;20062;-67
2023/07/26 13:18:13;;;;;;;9.48;3.55;;;;;;;;;;5049449;28;20100;-68
2023/07/26 13:20:39;;;;;;;4.17;3.40;;;;;;;;;;5050750;28;20032;-67
2023/07/26 13:23:04;;;;;;;4.82;4.30;;;;;;;;;;5060324;28;20461;-68
2023/07/26 13:25:30;;;;;;;5.72;3.47;;;;;;;;;;5070083;28;20035;-68
2023/07/26 13:27:55;;;;;;;4.37;2.20;;;;;;;;;;5064322;28;20044;-68
2023/07/26 13:30:20;;;;;;;5.82;3.42;;;;;;;;;;5050593;28;20083;-67
2023/07/26 13:32:45;;;;;;;6.47;5.87;;;;;;;;;;5049433;28;20033;-68
2023/07/26 13:35:12;;;;;;;8.90;8.10;;;;;;;;;;5048666;28;20029;-68
2023/07/26 13:37:37;;;;;;;6.35;5.75;;;;;;;;;;5048888;28;20942;-67
2023/07/26 13:40:03;;;;;;;6.20;4.93;;;;;;;;;;5050712;28;20013;-68
2023/07/26 13:42:28;;;;;;;3.90;3.28;;;;;;;;;;5048555;28;20381;-67
2023/07/26 13:44:53;;;;;;;10.65;3.30;;;;;;;;;;5051079;28;20482;-67
2023/07/26 13:47:19;;;;;;;8.50;3.60;;;;;;;;;;5049168;28;20542;-67
2023/07/26 13:49:44;;;;;;;2.97;2.70;;;;;;;;;;5050737;28;20035;-67
2023/07/26 13:52:10;;;;;;;11.23;3.43;;;;;;;;;;5067450;28;20113;-67
2023/07/26 13:54:35;;;;;;;4.00;3.00;;;;;;;;;;5070869;28;20051;-67
2023/07/26 13:57:00;;;;;;;2.97;2.67;;;;;;;;;;5055794;28;20473;-68
2023/07/26 13:59:25;;;;;;;4.10;3.05;;;;;;;;;;5050103;28;20407;-68
2023/07/26 14:01:50;;;;;;;13.00;2.75;;;;;;;;;;5049111;28;20044;-70
2023/07/26 14:04:16;;;;;;;4.70;3.87;;;;;;;;;;5049852;28;20091;-68
2023/07/26 14:06:41;;;;;;;6.32;3.97;;;;;;;;;;5048049;28;20060;-66
2023/07/26 14:09:06;;;;;;;3.63;3.20;;;;;;;;;;5060629;28;20017;-67
2023/07/26 14:11:32;;;;;;;6.83;3.30;;;;;;;;;;5066919;28;20403;-67
2023/07/26 14:13:58;;;;;;;4.57;3.60;;;;;;;;;;5069354;28;20028;-67
2023/07/26 14:16:23;;;;;;;12.52;5.22;;;;;;;;;;5067226;28;20040;-66
2023/07/26 14:18:48;;;;;;;4.97;2.92;;;;;;;;;;5056902;28;20519;-66
2023/07/26 14:21:13;;;;;;;4.15;3.08;;;;;;;;;;5048768;28;20025;-66
2023/07/26 14:23:39;;;;;;;7.60;3.30;;;;;;;;;;5050062;28;20431;-67
2023/07/26 14:26:04;;;;;;;4.07;3.40;;;;;;;;;;5048240;28;20104;-68
2023/07/26 14:28:29;;;;;;;6.15;4.22;;;;;;;;;;5050276;28;20025;-67